createdAt,value
2022-12-03T00:02:14.933Z,101188.61
2022-12-03T00:06:24.425Z,101188.26
2022-12-03T00:10:32.400Z,101188.98
2022-12-03T00:14:44.400Z,101184.32
2022-12-03T00:18:53.017Z,101180.48
2022-12-03T00:23:00.500Z,101181.70
2022-12-03T00:27:10.011Z,101184.48
2022-12-03T00:31:17.950Z,101183.93
2022-12-03T00:35:25.973Z,101176.55
2022-12-03T00:39:33.759Z,101176.33
2022-12-03T00:43:41.624Z,101173.17
2022-12-03T00:47:49.031Z,101172.16
2022-12-03T00:51:56.910Z,101172.59
2022-12-03T00:56:04.665Z,101170.52
2022-12-03T01:00:14.825Z,101169.65
2022-12-03T01:04:22.603Z,101172.27
2022-12-03T01:08:30.195Z,101170.85
2022-12-03T01:12:37.509Z,101172.05
2022-12-03T01:16:46.485Z,101172.73
2022-12-03T01:20:55.026Z,101168.77
2022-12-03T01:25:03.647Z,101168.30
2022-12-03T01:29:11.496Z,101166.91
2022-12-03T01:33:19.385Z,101166.92
2022-12-03T01:37:28.172Z,101168.15
2022-12-03T01:41:37.082Z,101164.63
2022-12-03T01:45:44.731Z,101162.19
2022-12-03T01:49:55.580Z,101160.80
2022-12-03T01:54:04.099Z,101162.21
2022-12-03T01:58:14.280Z,101163.13
2022-12-03T02:02:25.016Z,101157.36
2022-12-03T02:06:33.574Z,101155.05
2022-12-03T02:10:41.826Z,101154.66
2022-12-03T02:14:49.867Z,101143.80
2022-12-03T02:18:59.571Z,101149.40
2022-12-03T02:23:12.428Z,101154.48
2022-12-03T02:27:20.433Z,101150.32
2022-12-03T02:31:28.149Z,101154.16
2022-12-03T02:35:36.885Z,101155.39
2022-12-03T02:39:47.988Z,101155.73
2022-12-03T02:43:55.995Z,101154.50
2022-12-03T02:48:10.410Z,101150.81
2022-12-03T02:52:18.132Z,101148.20
2022-12-03T02:56:28.144Z,101146.47
2022-12-03T03:00:36.772Z,101146.83
2022-12-03T03:04:44.947Z,101142.30
2022-12-03T03:08:53.575Z,101140.55
2022-12-03T03:13:02.200Z,101136.70
2022-12-03T03:17:11.714Z,101135.83
2022-12-03T03:21:22.305Z,101135.48
2022-12-03T03:25:29.867Z,101136.04
2022-12-03T03:29:40.388Z,101137.08
2022-12-03T03:33:48.949Z,101134.27
2022-12-03T03:38:00.157Z,101134.94
2022-12-03T03:42:07.937Z,101131.56
2022-12-03T03:46:15.740Z,101123.89
2022-12-03T03:50:23.792Z,101124.82
2022-12-03T03:54:32.049Z,101119.80
2022-12-03T03:58:40.131Z,101118.06
2022-12-03T04:02:49.456Z,101115.77
2022-12-03T04:06:57.283Z,101112.75
2022-12-03T04:11:22.558Z,101114.45
2022-12-03T04:15:30.881Z,101112.57
2022-12-03T04:19:39.491Z,101106.16
2022-12-03T04:23:47.907Z,101104.82
2022-12-03T04:28:13.363Z,101106.93
2022-12-03T04:32:39.688Z,101104.85
2022-12-03T04:36:47.956Z,101106.22
2022-12-03T04:41:05.391Z,101109.16
2022-12-03T04:45:14.386Z,101109.70
2022-12-03T04:49:22.021Z,101109.90
2022-12-03T04:53:29.850Z,101112.89
2022-12-03T04:57:37.492Z,101114.46
2022-12-03T05:01:45.630Z,101110.09
2022-12-03T05:05:53.422Z,101107.98
2022-12-03T05:10:01.322Z,101105.52
2022-12-03T05:14:09.359Z,101106.52
2022-12-03T05:18:19.976Z,101106.67
2022-12-03T05:22:27.620Z,101107.77
2022-12-03T05:26:35.201Z,101105.73
2022-12-03T05:30:42.827Z,101106.45
2022-12-03T05:34:51.247Z,101105.43
2022-12-03T05:38:59.166Z,101100.86
2022-12-03T05:43:07.862Z,101103.96
2022-12-03T05:47:16.054Z,101101.66
2022-12-03T05:51:24.184Z,101099.24
2022-12-03T05:55:31.600Z,101094.39
2022-12-03T05:59:39.777Z,101098.07
2022-12-03T06:03:47.964Z,101098.23
2022-12-03T06:07:56.410Z,101101.36
2022-12-03T06:12:04.957Z,101104.27
2022-12-03T06:16:12.911Z,101097.23
2022-12-03T06:20:21.806Z,101099.30
2022-12-03T06:24:29.697Z,101104.20
2022-12-03T06:28:37.308Z,101105.98
2022-12-03T06:32:44.864Z,101108.84
2022-12-03T06:36:52.923Z,101105.73
2022-12-03T06:41:00.644Z,101105.02
2022-12-03T06:45:09.939Z,101103.42
2022-12-03T06:49:17.416Z,101098.88
2022-12-03T06:53:25.404Z,101104.05
2022-12-03T06:57:32.849Z,101103.90
2022-12-03T07:01:40.494Z,101105.70
2022-12-03T07:05:48.288Z,101101.05
2022-12-03T07:09:56.088Z,101102.98
2022-12-03T07:14:06.606Z,101104.75
2022-12-03T07:18:14.924Z,101104.20
2022-12-03T07:22:22.575Z,101099.50
2022-12-03T07:26:30.384Z,101098.09
2022-12-03T07:30:38.710Z,101090.64
2022-12-03T07:34:46.532Z,101092.77
2022-12-03T07:38:54.514Z,101094.52
2022-12-03T07:43:03.668Z,101096.98
2022-12-03T07:47:11.178Z,101092.78
2022-12-03T07:51:19.612Z,101093.31
2022-12-03T07:55:27.056Z,101091.91
2022-12-03T07:59:34.855Z,101092.06
2022-12-03T08:03:43.468Z,101088.08
2022-12-03T08:07:52.758Z,101082.55
2022-12-03T08:12:03.500Z,101074.59
2022-12-03T08:16:18.751Z,101067.13
2022-12-03T08:20:30.550Z,101067.14
2022-12-03T08:24:38.808Z,101067.98
2022-12-03T08:28:46.637Z,101069.05
2022-12-03T08:32:54.322Z,101066.96
2022-12-03T08:37:19.979Z,101066.48
2022-12-03T08:41:45.894Z,101062.50
2022-12-03T08:45:55.255Z,101062.70
2022-12-03T08:50:08.473Z,101063.38
2022-12-03T08:54:19.680Z,101061.10
2022-12-03T08:58:36.517Z,101064.75
2022-12-03T09:02:49.986Z,101065.81
2022-12-03T09:06:59.199Z,101072.28
2022-12-03T09:11:07.913Z,101069.54
2022-12-03T09:15:16.519Z,101068.33
2022-12-03T09:19:24.362Z,101075.86
2022-12-03T09:23:32.266Z,101069.95
2022-12-03T09:27:40.097Z,101064.71
2022-12-03T09:31:47.225Z,101060.17
2022-12-03T09:35:54.886Z,101058.80
2022-12-03T09:40:02.700Z,101060.02
2022-12-03T09:44:17.466Z,101061.44
2022-12-03T09:48:27.061Z,101058.16
2022-12-03T09:52:36.508Z,101057.98
2022-12-03T09:56:45.122Z,101059.91
2022-12-03T10:00:54.766Z,101062.35
2022-12-03T10:05:03.805Z,101056.59
2022-12-03T10:09:14.939Z,101055.20
2022-12-03T10:13:27.387Z,101047.86
2022-12-03T10:17:35.419Z,101051.19
2022-12-03T10:21:46.474Z,101053.67
2022-12-03T10:25:56.144Z,101045.64
2022-12-03T10:30:06.735Z,101046.16
2022-12-03T10:34:14.721Z,101041.10
2022-12-03T10:38:24.885Z,101031.86
2022-12-03T10:42:34.543Z,101029.07
2022-12-03T10:46:44.497Z,101024.02
2022-12-03T10:50:54.243Z,101021.91
2022-12-03T10:55:02.479Z,101017.54
2022-12-03T10:59:13.312Z,101009.69
2022-12-03T11:03:23.712Z,100999.39
2022-12-03T11:11:58.065Z,100998.17
2022-12-03T11:16:09.508Z,101003.05
2022-12-03T11:21:06.928Z,101006.91
2022-12-03T11:25:56.814Z,101011.45
2022-12-03T11:30:05.582Z,101008.84
2022-12-03T11:34:50.316Z,101007.78
2022-12-03T11:39:00.361Z,100988.56
2022-12-03T11:43:08.722Z,100980.00
2022-12-03T11:47:19.234Z,100981.58
2022-12-03T11:51:28.474Z,100982.45
2022-12-03T11:55:38.472Z,100982.80
2022-12-03T12:00:00.757Z,100978.80
2022-12-03T12:04:10.074Z,100990.66
2022-12-03T12:08:22.428Z,100986.80
2022-12-03T12:12:33.606Z,100989.61
2022-12-03T12:16:46.365Z,100982.44
2022-12-03T12:25:41.543Z,100968.43
2022-12-03T12:38:46.454Z,100965.30
2022-12-03T12:42:57.712Z,100958.30
2022-12-03T12:47:13.903Z,100954.82
2022-12-03T12:55:48.375Z,100942.71
2022-12-03T12:59:58.087Z,100945.69
2022-12-03T13:04:13.862Z,100954.27
2022-12-03T13:08:30.108Z,100956.54
2022-12-03T13:12:37.859Z,100954.80
2022-12-03T13:16:45.951Z,100939.59
2022-12-03T13:20:54.309Z,100935.38
2022-12-03T13:25:32.818Z,100929.08
2022-12-03T13:29:47.463Z,100940.81
2022-12-03T13:33:56.186Z,100944.31
2022-12-03T13:38:04.279Z,100948.88
2022-12-03T13:42:42.374Z,100945.91
2022-12-03T13:46:50.287Z,100944.34
2022-12-03T13:51:01.134Z,100945.55
2022-12-03T13:55:12.475Z,100940.11
2022-12-03T13:59:25.994Z,100933.31
2022-12-03T14:03:34.301Z,100932.09
2022-12-03T14:07:42.238Z,100934.89
2022-12-03T14:12:09.478Z,100932.95
2022-12-03T14:16:18.258Z,100930.67
2022-12-03T14:20:26.323Z,100930.15
2022-12-03T14:24:34.341Z,100929.63
2022-12-03T14:28:42.649Z,100928.94
2022-12-03T14:32:50.445Z,100920.40
2022-12-03T14:36:58.843Z,100923.72
2022-12-03T14:41:36.788Z,100928.41
2022-12-03T14:45:44.823Z,100925.58
2022-12-03T14:49:53.080Z,100925.06
2022-12-03T14:54:01.030Z,100926.64
2022-12-03T15:02:34.612Z,100937.98
2022-12-03T15:06:42.791Z,100935.89
2022-12-03T15:10:52.137Z,100942.02
2022-12-03T15:14:59.949Z,100940.76
2022-12-03T15:19:07.593Z,100943.53
2022-12-03T15:23:14.963Z,100946.16
2022-12-03T15:27:25.520Z,100945.31
2022-12-03T15:31:33.509Z,100938.85
2022-12-03T15:35:42.961Z,100941.14
2022-12-03T15:39:50.762Z,100927.14
2022-12-03T15:44:00.184Z,100929.73
2022-12-03T15:48:09.221Z,100920.46
2022-12-03T15:52:17.383Z,100927.64
2022-12-03T15:56:25.688Z,100928.70
2022-12-03T16:00:34.167Z,100932.92
2022-12-03T16:04:52.471Z,100933.45
2022-12-03T16:09:04.430Z,100936.56
2022-12-03T16:13:12.814Z,100929.56
2022-12-03T16:17:36.517Z,100926.41
2022-12-03T16:21:44.595Z,100927.13
2022-12-03T16:25:52.766Z,100919.80
2022-12-03T16:30:02.367Z,100917.02
2022-12-03T16:34:13.778Z,100912.64
2022-12-03T16:38:22.498Z,100915.77
2022-12-03T16:42:30.013Z,100918.21
2022-12-03T16:46:38.043Z,100914.03
2022-12-03T16:50:45.742Z,100911.08
2022-12-03T16:54:53.563Z,100911.96
2022-12-03T16:59:01.102Z,100911.77
2022-12-03T17:03:08.543Z,100919.80
2022-12-03T17:07:16.656Z,100920.15
2022-12-03T17:11:25.446Z,100917.70
2022-12-03T17:15:33.371Z,100915.44
2022-12-03T17:19:41.588Z,100906.52
2022-12-03T17:23:51.247Z,100904.58
2022-12-03T17:28:00.149Z,100900.00
2022-12-03T17:32:08.936Z,100901.40
2022-12-03T17:36:17.000Z,100900.70
2022-12-03T17:40:25.038Z,100896.33
2022-12-03T17:44:32.846Z,100896.69
2022-12-03T17:48:42.842Z,100896.50
2022-12-03T17:52:50.774Z,100889.83
2022-12-03T17:56:58.723Z,100889.44
2022-12-03T18:01:08.913Z,100895.21
2022-12-03T18:05:16.635Z,100891.88
2022-12-03T18:09:24.415Z,100886.45
2022-12-03T18:13:32.304Z,100883.65
2022-12-03T18:17:40.402Z,100881.73
2022-12-03T18:21:48.336Z,100885.73
2022-12-03T18:25:56.617Z,100886.27
2022-12-03T18:30:05.375Z,100887.15
2022-12-03T18:34:13.199Z,100881.73
2022-12-03T18:38:21.477Z,100883.46
2022-12-03T18:42:31.101Z,100876.63
2022-12-03T18:46:53.495Z,100876.26
2022-12-03T18:51:02.183Z,100874.31
2022-12-03T18:55:12.371Z,100876.06
2022-12-03T18:59:19.841Z,100874.33
2022-12-03T19:03:27.889Z,100868.05
2022-12-03T19:07:35.867Z,100865.27
2022-12-03T19:11:43.526Z,100866.98
2022-12-03T19:15:52.092Z,100864.86
2022-12-03T19:19:59.615Z,100876.37
2022-12-03T19:24:24.245Z,100875.14
2022-12-03T19:28:33.267Z,100875.69
2022-12-03T19:32:41.228Z,100877.61
2022-12-03T19:36:48.942Z,100882.69
2022-12-03T19:41:03.847Z,100889.49
2022-12-03T19:45:13.103Z,100887.56
2022-12-03T19:49:22.728Z,100892.14
2022-12-03T19:53:32.012Z,100889.52
2022-12-03T19:57:40.702Z,100883.23
2022-12-03T20:01:48.336Z,100887.79
2022-12-03T20:05:56.124Z,100881.83
2022-12-03T20:10:04.571Z,100883.90
2022-12-03T20:14:15.554Z,100890.39
2022-12-03T20:18:23.626Z,100891.09
2022-12-03T20:22:31.568Z,100885.00
2022-12-03T20:26:43.061Z,100881.16
2022-12-03T20:31:01.307Z,100874.33
2022-12-03T20:35:09.995Z,100862.94
2022-12-03T20:39:18.437Z,100860.65
2022-12-03T20:43:25.942Z,100860.48
2022-12-03T20:47:33.362Z,100865.73
2022-12-03T20:51:42.992Z,100858.03
2022-12-03T20:55:58.401Z,100852.61
2022-12-03T21:00:09.662Z,100852.27
2022-12-03T21:04:18.376Z,100850.86
2022-12-03T21:08:40.492Z,100848.76
2022-12-03T21:12:49.097Z,100857.15
2022-12-03T21:17:08.471Z,100853.30
2022-12-03T21:21:19.884Z,100855.75
2022-12-03T21:25:27.476Z,100855.07
2022-12-03T21:29:36.261Z,100858.20
2022-12-03T21:33:44.622Z,100862.73
2022-12-03T21:37:52.873Z,100859.77
2022-12-03T21:42:34.883Z,100862.40
2022-12-03T21:47:11.640Z,100864.48
2022-12-03T21:51:09.088Z,100863.45
2022-12-03T21:55:17.544Z,100857.89
2022-12-03T21:59:25.479Z,100857.70
2022-12-03T22:03:34.618Z,100850.85
2022-12-03T22:07:43.864Z,100845.94
2022-12-03T22:11:51.749Z,100844.53
2022-12-03T22:15:59.493Z,100843.84
2022-12-03T22:20:09.628Z,100846.65
2022-12-03T22:24:18.975Z,100839.33
2022-12-03T22:28:26.435Z,100834.78
2022-12-03T22:32:34.442Z,100834.24
2022-12-03T22:36:42.852Z,100829.17
2022-12-03T22:40:50.612Z,100825.52
2022-12-03T22:44:58.357Z,100828.18
2022-12-03T22:49:07.651Z,100830.98
2022-12-03T22:53:15.931Z,100827.64
2022-12-03T22:57:23.910Z,100821.30
2022-12-03T23:01:34.018Z,100817.27
2022-12-03T23:05:42.527Z,100816.09
2022-12-03T23:09:50.306Z,100821.36
2022-12-03T23:13:59.286Z,100821.36
2022-12-03T23:18:07.173Z,100819.77
2022-12-03T23:22:14.708Z,100812.23
2022-12-03T23:26:22.379Z,100805.76
2022-12-03T23:30:30.311Z,100803.17
2022-12-03T23:34:39.233Z,100803.73
2022-12-03T23:38:47.078Z,100796.91
2022-12-03T23:42:55.272Z,100791.84
2022-12-03T23:47:04.033Z,100792.69
2022-12-03T23:51:15.260Z,100789.52
2022-12-03T23:55:24.120Z,100779.54
2022-12-03T23:59:31.669Z,100778.16
